createdAt,value
2017-04-12T12:18:08.111Z,19.27
2017-04-12T12:23:08.011Z,19.53
2017-04-12T12:28:08.009Z,19.43
2017-04-12T12:33:07.884Z,19.5
2017-04-12T12:38:07.488Z,19.82
2017-04-12T12:43:07.437Z,19.74
2017-04-12T12:48:07.758Z,19.97
2017-04-12T12:53:07.638Z,19.74
2017-04-12T12:58:07.739Z,19.7
2017-04-12T13:03:07.632Z,19.19
2017-04-12T13:08:07.423Z,18.82
2017-04-12T13:13:07.375Z,18.68
2017-04-12T13:18:07.001Z,19.15
2017-04-12T13:23:07.248Z,19.74
2017-04-12T13:28:07.200Z,19.67
2017-04-12T13:33:06.814Z,19.42
2017-04-12T13:38:07.083Z,20.19
2017-04-12T13:43:07.000Z,20.41
2017-04-12T13:48:06.954Z,20.23
2017-04-12T13:53:06.901Z,19.74
2017-04-12T13:58:06.548Z,19.43
2017-04-12T14:03:06.776Z,19.09
2017-04-12T14:08:06.705Z,18.84
2017-04-12T14:13:06.661Z,18.75
2017-04-12T14:18:06.582Z,18.54
2017-04-12T14:23:06.524Z,18.51
2017-04-12T14:28:06.453Z,18.29
2017-04-12T14:33:06.397Z,18.21
2017-04-12T14:38:06.335Z,18.14
2017-04-12T14:43:06.273Z,17.99
2017-04-12T14:48:05.922Z,17.88
2017-04-12T14:53:06.185Z,17.79
2017-04-12T14:58:06.086Z,17.76
2017-04-12T15:03:06.026Z,17.69
2017-04-12T15:08:05.950Z,17.65
2017-04-12T15:13:05.880Z,17.55
2017-04-12T15:18:05.807Z,17.43
2017-04-12T15:23:05.763Z,17.47
2017-04-12T15:28:05.675Z,17.43
2017-04-12T15:33:05.608Z,17.36
2017-04-12T15:38:05.541Z,17.39
2017-04-12T15:43:05.168Z,17.42
2017-04-12T15:48:05.499Z,17.39
2017-04-12T15:53:05.332Z,17.17
2017-04-12T15:58:05.399Z,17.36
2017-04-12T16:03:05.218Z,17.39
2017-04-12T16:08:05.140Z,17.52
2017-04-12T16:13:05.077Z,17.43
2017-04-12T16:18:05.003Z,17.39
2017-04-12T16:23:04.935Z,17.47
2017-04-12T16:28:04.881Z,17.54
2017-04-12T16:33:04.606Z,17.46
